Saint Louis, Missouri
Traffic Map
Current Weather Conditions
Saint Louis, Missouri
Overcast Light Rain
Overcast
48°
Feels Like: 45°
Wind Chill: 45° Ceiling: 700
Heat Index: 48° Visibility: 3mi
Dew Point: 46° Wind: 6mph
Humidity: 93% Direction: 10° (N)
Pressure: 30in Gusts: 0mph
Raw Report DataKCPS 140540Z AUTO 01005KT 3SM -RA BR BKN007 BKN065 OVC080 09/08 A3000 RMK AO2 P0001 T00890078
Traffic Incident Summary
Active as of:
Severity:
Category:
InformationThere was an issue retrieving the traffic information for this location. Please try a different location or try again shortly.
Advertisements